Map

Track Data

SID SEASON NUMBER BASIN SUBBASIN NAME ISO_TIME NATURE LAT LON WMO_WIND WMO_PRES WMO_AGENCY TRACK_TYPE DIST2LAND LANDFALL IFLAG USA_AGENCY USA_ATCF_ID USA_LAT USA_LON USA_RECORD USA_STATUS USA_WIND USA_PRES USA_SSHS USA_R34_NE USA_R34_SE USA_R34_SW USA_R34_NW USA_R50_NE USA_R50_SE USA_R50_SW USA_R50_NW USA_R64_NE USA_R64_SE USA_R64_SW USA_R64_NW USA_POCI USA_ROCI USA_RMW USA_EYE TOKYO_LAT TOKYO_LON TOKYO_GRADE TOKYO_WIND TOKYO_PRES TOKYO_R50_DIR TOKYO_R50_LONG TOKYO_R50_SHORT TOKYO_R30_DIR TOKYO_R30_LONG TOKYO_R30_SHORT TOKYO_LAND CMA_LAT CMA_LON CMA_CAT CMA_WIND CMA_PRES HKO_LAT HKO_LON HKO_CAT HKO_WIND HKO_PRES NEWDELHI_LAT NEWDELHI_LON NEWDELHI_GRADE NEWDELHI_WIND NEWDELHI_PRES NEWDELHI_CI NEWDELHI_DP NEWDELHI_POCI REUNION_LAT REUNION_LON REUNION_TYPE REUNION_WIND REUNION_PRES REUNION_TNUM REUNION_CI REUNION_RMW REUNION_R34_NE REUNION_R34_SE REUNION_R34_SW REUNION_R34_NW REUNION_R50_NE REUNION_R50_SE REUNION_R50_SW REUNION_R50_NW REUNION_R64_NE REUNION_R64_SE REUNION_R64_SW REUNION_R64_NW BOM_LAT BOM_LON BOM_TYPE BOM_WIND BOM_PRES BOM_TNUM BOM_CI BOM_RMW BOM_R34_NE BOM_R34_SE BOM_R34_SW BOM_R34_NW BOM_R50_NE BOM_R50_SE BOM_R50_SW BOM_R50_NW BOM_R64_NE BOM_R64_SE BOM_R64_SW BOM_R64_NW BOM_ROCI BOM_POCI BOM_EYE BOM_POS_METHOD BOM_PRES_METHOD NADI_LAT NADI_LON NADI_CAT NADI_WIND NADI_PRES WELLINGTON_LAT WELLINGTON_LON WELLINGTON_WIND WELLINGTON_PRES DS824_LAT DS824_LON DS824_STAGE DS824_WIND DS824_PRES TD9636_LAT TD9636_LON TD9636_STAGE TD9636_WIND TD9636_PRES TD9635_LAT TD9635_LON TD9635_WIND TD9635_PRES TD9635_ROCI NEUMANN_LAT NEUMANN_LON NEUMANN_CLASS NEUMANN_WIND NEUMANN_PRES MLC_LAT MLC_LON MLC_CLASS MLC_WIND MLC_PRES USA_GUST BOM_GUST BOM_GUST_PER REUNION_GUST REUNION_GUST_PER USA_SEAHGT USA_SEARAD_NE USA_SEARAD_SE USA_SEARAD_SW USA_SEARAD_NW STORM_SPEED STORM_DIR
1968223N25281 1968 63 NA NA DOLLY 1968-08-10 00:00:00 TS 25.0000 -79.0000 25 1013 hurdat_atl main 67 67 O_____________ hurdat_atl AL051968 25.0000 -79.0000 TD 25 1013 -1 13 311
1968223N25281 1968 63 NA NA DOLLY 1968-08-10 03:00:00 TS 25.4330 -79.5392 main 74 9 P_____________ AL051968 25.4330 -79.5392 TD 25 1012 -1 13 315
1968223N25281 1968 63 NA NA DOLLY 1968-08-10 06:00:00 TS 25.9000 -80.0000 25 hurdat_atl main 9 0 I_____________ hurdat_atl AL051968 25.9000 -80.0000 TD 25 1012 -1 12 325
1968223N25281 1968 63 NA NA DOLLY 1968-08-10 09:00:00 TS 26.4273 -80.3177 main 0 0 P_____________ AL051968 26.4273 -80.3177 TD 25 1012 -1 12 338
1968223N25281 1968 63 NA NA DOLLY 1968-08-10 12:00:00 TS 27.0000 -80.5000 25 1012 hurdat_atl main 0 0 O_____________ hurdat_atl AL051968 27.0000 -80.5000 TD 25 1012 -1 12 348
1968223N25281 1968 63 NA NA DOLLY 1968-08-10 15:00:00 TS 27.5924 -80.6026 main 0 0 P_____________ AL051968 27.5924 -80.6026 TD 25 1011 -1 12 356
1968223N25281 1968 63 NA NA DOLLY 1968-08-10 18:00:00 TS 28.2000 -80.6000 25 hurdat_atl main 9 0 I_____________ hurdat_atl AL051968 28.2000 -80.6000 TD 25 1011 -1 12 2
1968223N25281 1968 63 NA NA DOLLY 1968-08-10 21:00:00 TS 28.7999 -80.5449 main 22 22 P_____________ AL051968 28.7999 -80.5449 TD 25 1011 -1 12 8
1968223N25281 1968 63 NA NA DOLLY 1968-08-11 00:00:00 TS 29.4000 -80.4000 25 1011 hurdat_atl main 58 58 O_____________ hurdat_atl AL051968 29.4000 -80.4000 TD 25 1011 -1 12 13
1968223N25281 1968 63 NA NA DOLLY 1968-08-11 03:00:00 TS 29.9997 -80.2168 main 106 106 P_____________ AL051968 29.9997 -80.2168 TD 25 -1 13 20
1968223N25281 1968 63 NA NA DOLLY 1968-08-11 06:00:00 TS 30.6000 -79.9000 25 hurdat_atl main 143 143 O_____________ hurdat_atl AL051968 30.6000 -79.9000 TD 25 -1 14 29
1968223N25281 1968 63 NA NA DOLLY 1968-08-11 09:00:00 TS 31.2070 -79.4394 main 161 137 P_____________ AL051968 31.2070 -79.4394 TD 27 -1 15 38
1968223N25281 1968 63 NA NA DOLLY 1968-08-11 12:00:00 TS 31.8000 -78.8000 30 hurdat_atl main 143 131 O_____________ hurdat_atl AL051968 31.8000 -78.8000 TD 30 -1 17 46
1968223N25281 1968 63 NA NA DOLLY 1968-08-11 15:00:00 TS 32.3724 -78.0098 main 143 133 P_____________ AL051968 32.3724 -78.0098 TD 30 -1 18 53
1968223N25281 1968 63 NA NA DOLLY 1968-08-11 18:00:00 TS 32.9000 -77.1000 30 hurdat_atl main 139 136 O_____________ hurdat_atl AL051968 32.9000 -77.1000 TD 30 -1 19 57
1968223N25281 1968 63 NA NA DOLLY 1968-08-11 21:00:00 TS 33.3871 -76.1646 main 147 138 P_____________ AL051968 33.3871 -76.1646 TD 30 -1 18 60
1968223N25281 1968 63 NA NA DOLLY 1968-08-12 00:00:00 TS 33.8000 -75.2000 30 1005 hurdat_atl main 155 155 O_____________ hurdat_atl AL051968 33.8000 -75.2000 TD 30 1005 -1 17 65
1968223N25281 1968 63 NA NA DOLLY 1968-08-12 03:00:00 TS 34.1216 -74.2560 main 203 203 P_____________ AL051968 34.1216 -74.2560 TD 30 1002 -1 17 69
1968223N25281 1968 63 NA NA DOLLY 1968-08-12 06:00:00 TS 34.4000 -73.3000 30 hurdat_atl main 253 253 I_____________ hurdat_atl AL051968 34.4000 -73.3000 TD 30 999 -1 17 70
1968223N25281 1968 63 NA NA DOLLY 1968-08-12 09:00:00 TS 34.6913 -72.3288 main 314 314 P_____________ AL051968 34.6913 -72.3288 TD 37 996 0 17 70
1968223N25281 1968 63 NA NA DOLLY 1968-08-12 12:00:00 TS 35.0000 -71.3000 45 994 hurdat_atl main 390 390 O_____________ hurdat_atl AL051968 35.0000 -71.3000 TS 45 994 0 19 70
1968223N25281 1968 63 NA NA DOLLY 1968-08-12 15:00:00 TS 35.3418 -70.1794 main 481 481 P_____________ AL051968 35.3418 -70.1794 TS 47 991 0 20 70
1968223N25281 1968 63 NA NA DOLLY 1968-08-12 18:00:00 TS 35.7000 -69.0000 50 hurdat_atl main 585 585 I_____________ hurdat_atl AL051968 35.7000 -69.0000 TS 50 989 0 20 70
1968223N25281 1968 63 NA NA DOLLY 1968-08-12 21:00:00 TS 36.0563 -67.8143 main 651 649 P_____________ AL051968 36.0563 -67.8143 TS 57 987 0 21 70
1968223N25281 1968 63 NA NA DOLLY 1968-08-13 00:00:00 TS 36.4000 -66.6000 65 985 hurdat_atl main 658 656 O_____________ hurdat_atl AL051968 36.4000 -66.6000 HU 65 985 1 21 72
1968223N25281 1968 63 NA NA DOLLY 1968-08-13 03:00:00 TS 36.7073 -65.3267 main 687 687 P_____________ AL051968 36.7073 -65.3267 HU 65 989 1 21 73
1968223N25281 1968 63 NA NA DOLLY 1968-08-13 06:00:00 TS 37.0000 -64.1000 65 hurdat_atl main 727 714 I_____________ hurdat_atl AL051968 37.0000 -64.1000 HU 65 993 1 19 72
1968223N25281 1968 63 NA NA DOLLY 1968-08-13 09:00:00 TS 37.2982 -63.0189 main 716 709 P_____________ AL051968 37.2982 -63.0189 HU 65 997 1 18 70
1968223N25281 1968 63 NA NA DOLLY 1968-08-13 12:00:00 TS 37.6000 -62.0000 65 1001 hurdat_atl main 712 709 O_____________ hurdat_atl AL051968 37.6000 -62.0000 HU 65 1001 1 17 70
1968223N25281 1968 63 NA NA DOLLY 1968-08-13 15:00:00 TS 37.8984 -60.9713 main 720 720 P_____________ AL051968 37.8984 -60.9713 HU 55 1000 0 18 70
1968223N25281 1968 63 NA NA DOLLY 1968-08-13 18:00:00 TS 38.2000 -59.9000 45 hurdat_atl main 743 743 I_____________ hurdat_atl AL051968 38.2000 -59.9000 TS 45 1000 0 18 71
1968223N25281 1968 63 NA NA DOLLY 1968-08-13 21:00:00 TS 38.5052 -58.7739 main 764 761 P_____________ AL051968 38.5052 -58.7739 TS 50 999 0 20 72
1968223N25281 1968 63 NA NA DOLLY 1968-08-14 00:00:00 TS 38.8000 -57.5000 55 999 hurdat_atl main 770 770 O_____________ hurdat_atl AL051968 38.8000 -57.5000 TS 55 999 0 22 76
1968223N25281 1968 63 NA NA DOLLY 1968-08-14 03:00:00 TS 39.0574 -56.0014 main 797 797 P_____________ AL051968 39.0574 -56.0014 TS 57 997 0 25 78
1968223N25281 1968 63 NA NA DOLLY 1968-08-14 06:00:00 TS 39.3000 -54.4000 60 hurdat_atl main 814 789 I_____________ hurdat_atl AL051968 39.3000 -54.4000 TS 60 995 0 25 79
1968223N25281 1968 63 NA NA DOLLY 1968-08-14 09:00:00 TS 39.5571 -52.8050 main 779 768 P_____________ AL051968 39.5571 -52.8050 TS 65 993 1 24 78
1968223N25281 1968 63 NA NA DOLLY 1968-08-14 12:00:00 TS 39.8000 -51.3000 70 992 hurdat_atl main 771 767 O_____________ hurdat_atl AL051968 39.8000 -51.3000 HU 70 992 1 22 78
1968223N25281 1968 63 NA NA DOLLY 1968-08-14 15:00:00 TS 40.0038 -50.0258 main 777 775 P_____________ AL051968 40.0038 -50.0258 HU 67 1 20 78
1968223N25281 1968 63 NA NA DOLLY 1968-08-14 18:00:00 TS 40.2000 -48.8000 65 hurdat_atl main 794 794 O_____________ hurdat_atl AL051968 40.2000 -48.8000 HU 65 1 21 78
1968223N25281 1968 63 NA NA DOLLY 1968-08-14 21:00:00 TS 40.4231 -47.3785 main 831 831 P_____________ AL051968 40.4231 -47.3785 HU 65 1 22 79
1968223N25281 1968 63 NA NA DOLLY 1968-08-15 00:00:00 TS 40.6000 -46.0000 65 hurdat_atl main 881 881 O_____________ hurdat_atl AL051968 40.6000 -46.0000 HU 65 1 19 83
1968223N25281 1968 63 NA NA DOLLY 1968-08-15 03:00:00 TS 40.6691 -44.8834 main 933 933 P_____________ AL051968 40.6691 -44.8834 HU 65 1 17 87
1968223N25281 1968 63 NA NA DOLLY 1968-08-15 06:00:00 TS 40.7000 -43.8000 65 hurdat_atl main 997 997 O_____________ hurdat_atl AL051968 40.7000 -43.8000 HU 65 1 18 87
1968223N25281 1968 63 NA NA DOLLY 1968-08-15 09:00:00 TS 40.7502 -42.5074 main 1070 1070 P_____________ AL051968 40.7502 -42.5074 HU 65 1 20 87
1968223N25281 1968 63 NA NA DOLLY 1968-08-15 12:00:00 TS 40.8000 -41.2000 65 999 hurdat_atl main 1153 1153 O_____________ hurdat_atl AL051968 40.8000 -41.2000 HU 65 999 1 19 88
1968223N25281 1968 63 NA NA DOLLY 1968-08-15 15:00:00 TS 40.8250 -40.0485 main 1232 1232 P_____________ AL051968 40.8250 -40.0485 HU 65 1000 1 17 87
1968223N25281 1968 63 NA NA DOLLY 1968-08-15 18:00:00 TS 40.9000 -38.9000 65 hurdat_atl main 1300 1300 I_____________ hurdat_atl AL051968 40.9000 -38.9000 HU 65 1002 1 19 83
1968223N25281 1968 63 NA NA DOLLY 1968-08-15 21:00:00 TS 41.0550 -37.5996 main 1378 1378 P_____________ AL051968 41.0550 -37.5996 HU 65 1004 1 20 78
1968223N25281 1968 63 NA NA DOLLY 1968-08-16 00:00:00 TS 41.3000 -36.3000 65 1006 hurdat_atl main 1458 1458 O_____________ hurdat_atl AL051968 41.3000 -36.3000 HU 65 1006 1 19 73
1968223N25281 1968 63 NA NA DOLLY 1968-08-16 03:00:00 TS 41.6329 -35.1350 main 1524 1518 P_____________ AL051968 41.6329 -35.1350 HU 65 1 19 68
1968223N25281 1968 63 NA NA DOLLY 1968-08-16 06:00:00 TS 42.0000 -34.0000 65 hurdat_atl main 1580 1580 O_____________ hurdat_atl AL051968 42.0000 -34.0000 HU 65 1 19 68
1968223N25281 1968 63 NA NA DOLLY 1968-08-16 09:00:00 TS 42.3371 -32.7855 main 1651 1651 P_____________ AL051968 42.3371 -32.7855 HU 47 0 19 71
1968223N25281 1968 63 NA NA DOLLY 1968-08-16 12:00:00 TS 42.6000 -31.6000 30 hurdat_atl main 1724 1724 O_____________ hurdat_atl AL051968 42.6000 -31.6000 TD 30 -1 17 76
1968223N25281 1968 63 NA NA DOLLY 1968-08-16 15:00:00 TS 42.7412 -30.5935 main 1725 1643 P_____________ AL051968 42.7412 -30.5935 TD 30 -1 16 83
1968223N25281 1968 63 NA NA DOLLY 1968-08-16 18:00:00 TS 42.8000 -29.5000 30 1011 hurdat_atl main 1635 1530 O_____________ hurdat_atl AL051968 42.8000 -29.5000 TD 30 1011 -1 18 88
1968223N25281 1968 63 NA NA DOLLY 1968-08-16 21:00:00 TS 42.8165 -28.0977 main 1522 1401 P_____________ AL051968 42.8165 -28.0977 TD 30 -1 22 90
1968223N25281 1968 63 NA NA DOLLY 1968-08-17 00:00:00 TS 42.8000 -26.5000 30 hurdat_atl main 1393 O_____________ hurdat_atl AL051968 42.8000 -26.5000 TD 30 -1 23 91

About IBTrACS Database

This database is a web-friendly format of International Best Track Archive for Climate Stewardship (IBTrACS), a global best track data archive curated by NOAA dating back to 1842.

Updated: 2021-10-21